sensor_id;sensor_type;location;lat;lon;timestamp;temperature;humidity
23827;DHT22;12094;50.822;4.376;2023-07-09T00:01:16;25.10;99.90
23827;DHT22;12094;50.822;4.376;2023-07-09T00:03:45;25.20;99.90
23827;DHT22;12094;50.822;4.376;2023-07-09T00:06:13;25.10;99.90
23827;DHT22;12094;50.822;4.376;2023-07-09T00:08:43;25.10;99.90
23827;DHT22;12094;50.822;4.376;2023-07-09T00:11:11;25.10;99.90
23827;DHT22;12094;50.822;4.376;2023-07-09T00:13:38;25.00;99.90
23827;DHT22;12094;50.822;4.376;2023-07-09T00:16:13;25.00;99.90
23827;DHT22;12094;50.822;4.376;2023-07-09T00:18:42;25.00;99.90
23827;DHT22;12094;50.822;4.376;2023-07-09T00:21:09;24.90;99.90
23827;DHT22;12094;50.822;4.376;2023-07-09T00:23:36;25.00;99.90
23827;DHT22;12094;50.822;4.376;2023-07-09T00:26:11;25.00;99.90
23827;DHT22;12094;50.822;4.376;2023-07-09T00:28:43;24.90;99.90
23827;DHT22;12094;50.822;4.376;2023-07-09T00:31:13;24.80;99.90
23827;DHT22;12094;50.822;4.376;2023-07-09T00:33:44;24.80;99.90
23827;DHT22;12094;50.822;4.376;2023-07-09T00:36:16;24.70;99.90
23827;DHT22;12094;50.822;4.376;2023-07-09T00:38:44;24.60;99.90
23827;DHT22;12094;50.822;4.376;2023-07-09T00:41:18;24.70;99.90
23827;DHT22;12094;50.822;4.376;2023-07-09T00:43:47;24.70;99.90
23827;DHT22;12094;50.822;4.376;2023-07-09T00:48:57;24.70;99.90
23827;DHT22;12094;50.822;4.376;2023-07-09T00:51:27;24.70;99.90
23827;DHT22;12094;50.822;4.376;2023-07-09T00:54:01;24.70;99.90
23827;DHT22;12094;50.822;4.376;2023-07-09T00:56:39;24.60;99.90
23827;DHT22;12094;50.822;4.376;2023-07-09T00:59:13;24.60;99.90
23827;DHT22;12094;50.822;4.376;2023-07-09T01:01:42;24.50;99.90
23827;DHT22;12094;50.822;4.376;2023-07-09T01:04:11;24.50;99.90
23827;DHT22;12094;50.822;4.376;2023-07-09T01:06:48;24.50;99.90
23827;DHT22;12094;50.822;4.376;2023-07-09T01:09:17;24.50;99.90
23827;DHT22;12094;50.822;4.376;2023-07-09T01:11:44;24.60;99.90
23827;DHT22;12094;50.822;4.376;2023-07-09T01:14:15;24.60;99.90
23827;DHT22;12094;50.822;4.376;2023-07-09T01:17:02;24.60;99.90
23827;DHT22;12094;50.822;4.376;2023-07-09T01:19:35;24.70;99.90
23827;DHT22;12094;50.822;4.376;2023-07-09T01:22:14;24.70;99.90
23827;DHT22;12094;50.822;4.376;2023-07-09T01:25:05;24.90;99.90
23827;DHT22;12094;50.822;4.376;2023-07-09T01:27:39;24.80;99.90
23827;DHT22;12094;50.822;4.376;2023-07-09T01:30:23;24.80;99.90
23827;DHT22;12094;50.822;4.376;2023-07-09T01:32:51;24.80;99.90
23827;DHT22;12094;50.822;4.376;2023-07-09T01:35:22;24.70;99.90
23827;DHT22;12094;50.822;4.376;2023-07-09T01:37:57;24.60;99.90
23827;DHT22;12094;50.822;4.376;2023-07-09T01:40:28;24.70;99.90
23827;DHT22;12094;50.822;4.376;2023-07-09T01:43:01;24.80;99.90
23827;DHT22;12094;50.822;4.376;2023-07-09T01:45:28;24.60;99.90
23827;DHT22;12094;50.822;4.376;2023-07-09T01:47:55;24.60;99.90
23827;DHT22;12094;50.822;4.376;2023-07-09T01:50:25;24.60;99.90
23827;DHT22;12094;50.822;4.376;2023-07-09T01:52:56;24.60;99.90
23827;DHT22;12094;50.822;4.376;2023-07-09T01:55:25;24.50;99.90
23827;DHT22;12094;50.822;4.376;2023-07-09T01:57:52;24.50;99.90
23827;DHT22;12094;50.822;4.376;2023-07-09T02:00:21;24.50;99.90
23827;DHT22;12094;50.822;4.376;2023-07-09T02:02:48;24.40;99.90
23827;DHT22;12094;50.822;4.376;2023-07-09T02:05:20;24.40;99.90
23827;DHT22;12094;50.822;4.376;2023-07-09T02:07:48;24.30;99.90
23827;DHT22;12094;50.822;4.376;2023-07-09T02:10:16;24.30;99.90
23827;DHT22;12094;50.822;4.376;2023-07-09T02:12:45;24.30;99.90
23827;DHT22;12094;50.822;4.376;2023-07-09T02:15:12;24.30;99.90
23827;DHT22;12094;50.822;4.376;2023-07-09T02:17:39;24.30;99.90
23827;DHT22;12094;50.822;4.376;2023-07-09T02:20:07;24.30;99.90
23827;DHT22;12094;50.822;4.376;2023-07-09T02:22:36;24.30;99.90
23827;DHT22;12094;50.822;4.376;2023-07-09T02:25:04;24.30;99.90
23827;DHT22;12094;50.822;4.376;2023-07-09T02:27:33;24.30;99.90
23827;DHT22;12094;50.822;4.376;2023-07-09T02:30:00;24.30;99.90
23827;DHT22;12094;50.822;4.376;2023-07-09T02:32:28;24.20;99.90
23827;DHT22;12094;50.822;4.376;2023-07-09T02:34:56;24.20;99.90
23827;DHT22;12094;50.822;4.376;2023-07-09T02:37:25;24.30;99.90
23827;DHT22;12094;50.822;4.376;2023-07-09T02:39:53;24.30;99.90
23827;DHT22;12094;50.822;4.376;2023-07-09T02:42:22;24.20;99.90
23827;DHT22;12094;50.822;4.376;2023-07-09T02:44:50;24.30;99.90
23827;DHT22;12094;50.822;4.376;2023-07-09T02:47:22;24.30;99.90
23827;DHT22;12094;50.822;4.376;2023-07-09T02:49:49;24.20;99.90
23827;DHT22;12094;50.822;4.376;2023-07-09T02:52:17;24.20;99.90
23827;DHT22;12094;50.822;4.376;2023-07-09T02:54:44;24.10;99.90
23827;DHT22;12094;50.822;4.376;2023-07-09T02:57:12;24.10;99.90
23827;DHT22;12094;50.822;4.376;2023-07-09T02:59:39;24.10;99.90
23827;DHT22;12094;50.822;4.376;2023-07-09T03:02:06;24.20;99.90
23827;DHT22;12094;50.822;4.376;2023-07-09T03:04:34;24.20;99.90
23827;DHT22;12094;50.822;4.376;2023-07-09T03:07:02;24.10;99.90
23827;DHT22;12094;50.822;4.376;2023-07-09T03:09:29;24.10;99.90
23827;DHT22;12094;50.822;4.376;2023-07-09T03:11:56;24.10;99.90
23827;DHT22;12094;50.822;4.376;2023-07-09T03:14:26;24.10;99.90
23827;DHT22;12094;50.822;4.376;2023-07-09T03:16:53;24.10;99.90
23827;DHT22;12094;50.822;4.376;2023-07-09T03:19:21;24.00;99.90
23827;DHT22;12094;50.822;4.376;2023-07-09T03:21:49;23.90;99.90
23827;DHT22;12094;50.822;4.376;2023-07-09T03:24:17;23.90;99.90
23827;DHT22;12094;50.822;4.376;2023-07-09T03:26:47;24.00;99.90
23827;DHT22;12094;50.822;4.376;2023-07-09T03:29:15;24.00;99.90
23827;DHT22;12094;50.822;4.376;2023-07-09T03:31:42;24.00;99.90
23827;DHT22;12094;50.822;4.376;2023-07-09T03:34:10;24.00;99.90
23827;DHT22;12094;50.822;4.376;2023-07-09T03:36:37;24.00;99.90
23827;DHT22;12094;50.822;4.376;2023-07-09T03:39:05;24.00;99.90
23827;DHT22;12094;50.822;4.376;2023-07-09T03:41:33;24.20;99.90
23827;DHT22;12094;50.822;4.376;2023-07-09T03:44:00;24.30;99.90
23827;DHT22;12094;50.822;4.376;2023-07-09T03:46:27;24.40;99.90
23827;DHT22;12094;50.822;4.376;2023-07-09T03:48:55;24.30;99.90
23827;DHT22;12094;50.822;4.376;2023-07-09T03:51:22;24.30;99.90
23827;DHT22;12094;50.822;4.376;2023-07-09T03:53:50;24.20;99.90
23827;DHT22;12094;50.822;4.376;2023-07-09T03:56:17;24.20;99.90
23827;DHT22;12094;50.822;4.376;2023-07-09T03:58:44;24.20;99.90
23827;DHT22;12094;50.822;4.376;2023-07-09T04:01:11;24.30;99.90
23827;DHT22;12094;50.822;4.376;2023-07-09T04:03:38;24.40;99.90
23827;DHT22;12094;50.822;4.376;2023-07-09T04:06:05;24.20;99.90
23827;DHT22;12094;50.822;4.376;2023-07-09T04:08:32;24.20;99.90
23827;DHT22;12094;50.822;4.376;2023-07-09T04:11:00;24.10;99.90
23827;DHT22;12094;50.822;4.376;2023-07-09T04:13:28;24.10;99.90
23827;DHT22;12094;50.822;4.376;2023-07-09T04:15:57;24.20;99.90
23827;DHT22;12094;50.822;4.376;2023-07-09T04:18:25;24.20;99.90
23827;DHT22;12094;50.822;4.376;2023-07-09T04:20:52;24.00;99.90
23827;DHT22;12094;50.822;4.376;2023-07-09T04:23:20;24.00;99.90
23827;DHT22;12094;50.822;4.376;2023-07-09T04:25:48;24.00;99.90
23827;DHT22;12094;50.822;4.376;2023-07-09T04:28:15;24.00;99.90
23827;DHT22;12094;50.822;4.376;2023-07-09T04:30:50;23.90;99.90
23827;DHT22;12094;50.822;4.376;2023-07-09T04:33:20;23.80;99.90
23827;DHT22;12094;50.822;4.376;2023-07-09T04:35:50;23.60;99.90
23827;DHT22;12094;50.822;4.376;2023-07-09T04:38:18;23.60;99.90
23827;DHT22;12094;50.822;4.376;2023-07-09T04:40:48;23.80;99.90
23827;DHT22;12094;50.822;4.376;2023-07-09T04:43:16;23.70;99.90
23827;DHT22;12094;50.822;4.376;2023-07-09T04:45:43;23.70;99.90
23827;DHT22;12094;50.822;4.376;2023-07-09T04:48:11;23.60;99.90
23827;DHT22;12094;50.822;4.376;2023-07-09T04:50:43;23.50;99.90
23827;DHT22;12094;50.822;4.376;2023-07-09T04:53:11;23.60;99.90
23827;DHT22;12094;50.822;4.376;2023-07-09T04:55:38;23.60;99.90
23827;DHT22;12094;50.822;4.376;2023-07-09T04:58:07;23.50;99.90
23827;DHT22;12094;50.822;4.376;2023-07-09T05:00:35;23.40;99.90
23827;DHT22;12094;50.822;4.376;2023-07-09T05:05:55;23.30;99.90
23827;DHT22;12094;50.822;4.376;2023-07-09T05:08:23;23.30;99.90
23827;DHT22;12094;50.822;4.376;2023-07-09T05:10:51;23.40;99.90
23827;DHT22;12094;50.822;4.376;2023-07-09T05:13:19;23.50;99.90
23827;DHT22;12094;50.822;4.376;2023-07-09T05:15:47;23.40;99.90
23827;DHT22;12094;50.822;4.376;2023-07-09T05:18:16;23.50;99.90
23827;DHT22;12094;50.822;4.376;2023-07-09T05:20:45;23.50;99.90
23827;DHT22;12094;50.822;4.376;2023-07-09T05:23:13;23.60;99.90
23827;DHT22;12094;50.822;4.376;2023-07-09T05:25:40;23.60;99.90
23827;DHT22;12094;50.822;4.376;2023-07-09T05:28:07;23.60;99.90
23827;DHT22;12094;50.822;4.376;2023-07-09T05:30:34;23.70;99.90
23827;DHT22;12094;50.822;4.376;2023-07-09T05:33:02;23.70;99.90
23827;DHT22;12094;50.822;4.376;2023-07-09T05:35:29;23.70;99.90
23827;DHT22;12094;50.822;4.376;2023-07-09T05:37:57;23.80;99.90
23827;DHT22;12094;50.822;4.376;2023-07-09T05:40:25;23.90;99.90
23827;DHT22;12094;50.822;4.376;2023-07-09T05:42:53;24.00;99.90
23827;DHT22;12094;50.822;4.376;2023-07-09T05:45:21;24.20;99.90
23827;DHT22;12094;50.822;4.376;2023-07-09T05:47:49;24.20;99.90
23827;DHT22;12094;50.822;4.376;2023-07-09T05:50:16;24.50;99.90
23827;DHT22;12094;50.822;4.376;2023-07-09T05:52:43;24.50;99.90
23827;DHT22;12094;50.822;4.376;2023-07-09T05:55:10;24.60;99.90
23827;DHT22;12094;50.822;4.376;2023-07-09T05:57:38;24.50;99.90
23827;DHT22;12094;50.822;4.376;2023-07-09T06:00:09;24.50;99.90
23827;DHT22;12094;50.822;4.376;2023-07-09T06:02:42;24.50;99.90
23827;DHT22;12094;50.822;4.376;2023-07-09T06:05:10;24.60;99.90
23827;DHT22;12094;50.822;4.376;2023-07-09T06:07:38;24.70;99.90
23827;DHT22;12094;50.822;4.376;2023-07-09T06:10:07;24.70;99.90
23827;DHT22;12094;50.822;4.376;2023-07-09T06:12:35;24.80;99.90
23827;DHT22;12094;50.822;4.376;2023-07-09T06:15:02;24.90;99.90
23827;DHT22;12094;50.822;4.376;2023-07-09T06:17:31;25.00;99.90
23827;DHT22;12094;50.822;4.376;2023-07-09T06:20:00;25.10;99.90
23827;DHT22;12094;50.822;4.376;2023-07-09T06:22:27;25.10;99.90
23827;DHT22;12094;50.822;4.376;2023-07-09T06:24:56;25.10;99.90
23827;DHT22;12094;50.822;4.376;2023-07-09T06:27:23;24.90;99.90
23827;DHT22;12094;50.822;4.376;2023-07-09T06:29:50;24.70;99.90
23827;DHT22;12094;50.822;4.376;2023-07-09T06:32:17;24.40;99.90
23827;DHT22;12094;50.822;4.376;2023-07-09T06:34:47;24.30;99.90
23827;DHT22;12094;50.822;4.376;2023-07-09T06:37:14;24.30;99.90
23827;DHT22;12094;50.822;4.376;2023-07-09T06:39:41;24.50;99.90
23827;DHT22;12094;50.822;4.376;2023-07-09T06:42:09;24.60;99.90
23827;DHT22;12094;50.822;4.376;2023-07-09T06:44:59;24.40;99.90
23827;DHT22;12094;50.822;4.376;2023-07-09T06:47:28;24.20;99.90
23827;DHT22;12094;50.822;4.376;2023-07-09T06:49:55;24.10;99.90
23827;DHT22;12094;50.822;4.376;2023-07-09T06:52:22;24.10;99.90
23827;DHT22;12094;50.822;4.376;2023-07-09T06:54:50;24.20;99.90
23827;DHT22;12094;50.822;4.376;2023-07-09T06:57:19;24.20;99.90
23827;DHT22;12094;50.822;4.376;2023-07-09T06:59:52;24.30;99.90
23827;DHT22;12094;50.822;4.376;2023-07-09T07:02:22;24.50;99.90
23827;DHT22;12094;50.822;4.376;2023-07-09T07:04:49;24.40;99.90
23827;DHT22;12094;50.822;4.376;2023-07-09T07:07:19;24.30;99.90
23827;DHT22;12094;50.822;4.376;2023-07-09T07:09:46;24.40;99.90
23827;DHT22;12094;50.822;4.376;2023-07-09T07:12:27;24.60;99.90
23827;DHT22;12094;50.822;4.376;2023-07-09T07:14:56;24.90;99.90
23827;DHT22;12094;50.822;4.376;2023-07-09T07:17:25;25.10;99.90
23827;DHT22;12094;50.822;4.376;2023-07-09T07:19:52;25.10;99.90
23827;DHT22;12094;50.822;4.376;2023-07-09T07:22:20;25.10;99.90
23827;DHT22;12094;50.822;4.376;2023-07-09T07:24:48;25.20;99.90
23827;DHT22;12094;50.822;4.376;2023-07-09T07:27:15;25.30;99.90
23827;DHT22;12094;50.822;4.376;2023-07-09T07:29:43;25.50;99.90
23827;DHT22;12094;50.822;4.376;2023-07-09T07:32:10;25.70;99.90
23827;DHT22;12094;50.822;4.376;2023-07-09T07:34:37;25.90;99.90
23827;DHT22;12094;50.822;4.376;2023-07-09T07:37:04;26.00;99.90
23827;DHT22;12094;50.822;4.376;2023-07-09T07:39:32;26.10;99.90
23827;DHT22;12094;50.822;4.376;2023-07-09T07:41:59;26.00;99.90
23827;DHT22;12094;50.822;4.376;2023-07-09T07:44:27;26.00;99.90
23827;DHT22;12094;50.822;4.376;2023-07-09T07:46:54;26.00;99.90
23827;DHT22;12094;50.822;4.376;2023-07-09T07:49:22;26.10;99.90
23827;DHT22;12094;50.822;4.376;2023-07-09T07:51:49;26.30;99.90
23827;DHT22;12094;50.822;4.376;2023-07-09T07:54:16;26.50;99.90
23827;DHT22;12094;50.822;4.376;2023-07-09T07:56:46;26.70;99.90
23827;DHT22;12094;50.822;4.376;2023-07-09T07:59:13;26.80;99.90
23827;DHT22;12094;50.822;4.376;2023-07-09T08:01:42;26.90;99.90
23827;DHT22;12094;50.822;4.376;2023-07-09T08:04:09;27.00;99.90
23827;DHT22;12094;50.822;4.376;2023-07-09T08:06:37;27.00;99.90
23827;DHT22;12094;50.822;4.376;2023-07-09T08:09:05;26.90;99.90
23827;DHT22;12094;50.822;4.376;2023-07-09T08:11:34;26.90;99.90
23827;DHT22;12094;50.822;4.376;2023-07-09T08:14:01;26.90;99.90
23827;DHT22;12094;50.822;4.376;2023-07-09T08:16:30;26.90;99.90
23827;DHT22;12094;50.822;4.376;2023-07-09T08:18:58;26.90;99.90
23827;DHT22;12094;50.822;4.376;2023-07-09T08:21:25;26.80;99.90
23827;DHT22;12094;50.822;4.376;2023-07-09T08:23:52;26.80;99.90
23827;DHT22;12094;50.822;4.376;2023-07-09T08:26:19;26.80;99.90
23827;DHT22;12094;50.822;4.376;2023-07-09T08:28:48;26.60;99.90
23827;DHT22;12094;50.822;4.376;2023-07-09T08:31:16;26.40;99.90
23827;DHT22;12094;50.822;4.376;2023-07-09T08:33:43;26.70;99.90
23827;DHT22;12094;50.822;4.376;2023-07-09T08:36:10;27.00;99.90
23827;DHT22;12094;50.822;4.376;2023-07-09T08:38:38;27.00;99.90
23827;DHT22;12094;50.822;4.376;2023-07-09T08:41:15;27.20;99.90
23827;DHT22;12094;50.822;4.376;2023-07-09T08:47:33;27.50;99.90
23827;DHT22;12094;50.822;4.376;2023-07-09T08:50:12;27.60;99.90
23827;DHT22;12094;50.822;4.376;2023-07-09T08:52:45;27.40;99.90
23827;DHT22;12094;50.822;4.376;2023-07-09T08:55:19;27.60;99.90
23827;DHT22;12094;50.822;4.376;2023-07-09T08:57:55;27.80;99.90
23827;DHT22;12094;50.822;4.376;2023-07-09T09:00:40;28.00;99.90
23827;DHT22;12094;50.822;4.376;2023-07-09T09:03:38;27.90;99.90
23827;DHT22;12094;50.822;4.376;2023-07-09T09:06:21;27.70;99.90
23827;DHT22;12094;50.822;4.376;2023-07-09T09:08:55;27.70;99.90
23827;DHT22;12094;50.822;4.376;2023-07-09T09:14:02;27.70;99.90
23827;DHT22;12094;50.822;4.376;2023-07-09T09:16:36;27.80;99.90
23827;DHT22;12094;50.822;4.376;2023-07-09T09:19:19;28.30;99.90
23827;DHT22;12094;50.822;4.376;2023-07-09T09:21:54;28.50;99.90
23827;DHT22;12094;50.822;4.376;2023-07-09T09:24:27;28.60;99.90
23827;DHT22;12094;50.822;4.376;2023-07-09T09:26:58;28.80;99.90
23827;DHT22;12094;50.822;4.376;2023-07-09T09:29:28;28.80;99.90
23827;DHT22;12094;50.822;4.376;2023-07-09T09:31:58;28.90;99.90
23827;DHT22;12094;50.822;4.376;2023-07-09T09:34:29;28.90;99.90
23827;DHT22;12094;50.822;4.376;2023-07-09T09:36:58;29.00;99.90
23827;DHT22;12094;50.822;4.376;2023-07-09T09:39:37;28.80;99.90
23827;DHT22;12094;50.822;4.376;2023-07-09T09:42:10;28.80;99.90
23827;DHT22;12094;50.822;4.376;2023-07-09T09:44:43;28.50;99.90
23827;DHT22;12094;50.822;4.376;2023-07-09T09:47:11;28.50;99.90
23827;DHT22;12094;50.822;4.376;2023-07-09T09:49:43;28.90;99.90
23827;DHT22;12094;50.822;4.376;2023-07-09T09:52:14;29.30;99.90
23827;DHT22;12094;50.822;4.376;2023-07-09T09:54:51;29.50;99.90
23827;DHT22;12094;50.822;4.376;2023-07-09T09:57:23;29.50;99.90
23827;DHT22;12094;50.822;4.376;2023-07-09T09:59:54;29.40;99.90
23827;DHT22;12094;50.822;4.376;2023-07-09T10:02:24;29.20;99.90
23827;DHT22;12094;50.822;4.376;2023-07-09T10:04:55;29.30;99.90
23827;DHT22;12094;50.822;4.376;2023-07-09T10:07:34;29.70;99.90
23827;DHT22;12094;50.822;4.376;2023-07-09T10:10:08;29.80;99.90
23827;DHT22;12094;50.822;4.376;2023-07-09T10:12:48;29.70;99.90
23827;DHT22;12094;50.822;4.376;2023-07-09T10:15:45;29.70;99.90
23827;DHT22;12094;50.822;4.376;2023-07-09T10:18:51;29.90;99.90
23827;DHT22;12094;50.822;4.376;2023-07-09T10:21:26;30.20;99.90
23827;DHT22;12094;50.822;4.376;2023-07-09T10:26:51;30.10;99.90
23827;DHT22;12094;50.822;4.376;2023-07-09T10:32:45;30.10;99.90
23827;DHT22;12094;50.822;4.376;2023-07-09T10:40:49;29.90;99.90
23827;DHT22;12094;50.822;4.376;2023-07-09T10:46:34;29.60;99.90
23827;DHT22;12094;50.822;4.376;2023-07-09T10:49:05;29.50;99.90
23827;DHT22;12094;50.822;4.376;2023-07-09T10:54:33;28.80;99.90
23827;DHT22;12094;50.822;4.376;2023-07-09T10:57:11;28.30;99.90
23827;DHT22;12094;50.822;4.376;2023-07-09T10:59:41;28.30;99.90
23827;DHT22;12094;50.822;4.376;2023-07-09T11:02:25;28.20;99.90
23827;DHT22;12094;50.822;4.376;2023-07-09T11:04:59;28.20;99.90
23827;DHT22;12094;50.822;4.376;2023-07-09T11:07:55;28.10;99.90
23827;DHT22;12094;50.822;4.376;2023-07-09T11:10:29;28.00;99.90
23827;DHT22;12094;50.822;4.376;2023-07-09T11:13:09;28.10;99.90
23827;DHT22;12094;50.822;4.376;2023-07-09T11:15:46;28.00;99.90
23827;DHT22;12094;50.822;4.376;2023-07-09T11:18:25;28.10;99.90
23827;DHT22;12094;50.822;4.376;2023-07-09T11:21:22;28.10;99.90
23827;DHT22;12094;50.822;4.376;2023-07-09T11:23:51;28.00;99.90
23827;DHT22;12094;50.822;4.376;2023-07-09T11:31:39;27.80;99.90
23827;DHT22;12094;50.822;4.376;2023-07-09T11:39:19;27.50;99.90
23827;DHT22;12094;50.822;4.376;2023-07-09T11:41:46;27.50;99.90
23827;DHT22;12094;50.822;4.376;2023-07-09T11:44:21;27.40;99.90
23827;DHT22;12094;50.822;4.376;2023-07-09T11:47:20;27.30;99.90
23827;DHT22;12094;50.822;4.376;2023-07-09T11:52:33;27.00;99.90
23827;DHT22;12094;50.822;4.376;2023-07-09T11:55:28;26.90;99.90
23827;DHT22;12094;50.822;4.376;2023-07-09T11:58:02;26.80;99.90
23827;DHT22;12094;50.822;4.376;2023-07-09T12:00:54;26.80;99.90
23827;DHT22;12094;50.822;4.376;2023-07-09T12:03:33;26.80;99.90
23827;DHT22;12094;50.822;4.376;2023-07-09T12:06:07;26.70;99.90
23827;DHT22;12094;50.822;4.376;2023-07-09T12:08:41;26.60;99.90
23827;DHT22;12094;50.822;4.376;2023-07-09T12:11:21;26.50;99.90
23827;DHT22;12094;50.822;4.376;2023-07-09T12:13:50;26.40;99.90
23827;DHT22;12094;50.822;4.376;2023-07-09T12:16:24;26.40;99.90
23827;DHT22;12094;50.822;4.376;2023-07-09T12:18:53;26.30;99.90
23827;DHT22;12094;50.822;4.376;2023-07-09T12:21:22;26.10;99.90
23827;DHT22;12094;50.822;4.376;2023-07-09T12:23:49;26.00;99.90
23827;DHT22;12094;50.822;4.376;2023-07-09T12:26:19;25.70;99.90
23827;DHT22;12094;50.822;4.376;2023-07-09T12:28:51;25.40;99.90
23827;DHT22;12094;50.822;4.376;2023-07-09T12:31:24;25.00;99.90
23827;DHT22;12094;50.822;4.376;2023-07-09T12:33:53;24.50;99.90
23827;DHT22;12094;50.822;4.376;2023-07-09T12:36:23;24.10;99.90
23827;DHT22;12094;50.822;4.376;2023-07-09T12:38:53;23.80;99.90
23827;DHT22;12094;50.822;4.376;2023-07-09T12:41:34;23.60;99.90
23827;DHT22;12094;50.822;4.376;2023-07-09T12:44:02;23.50;99.90
23827;DHT22;12094;50.822;4.376;2023-07-09T12:46:30;23.60;99.90
23827;DHT22;12094;50.822;4.376;2023-07-09T12:48:58;23.50;99.90
23827;DHT22;12094;50.822;4.376;2023-07-09T12:51:29;23.40;99.90
23827;DHT22;12094;50.822;4.376;2023-07-09T12:54:17;23.50;99.90
23827;DHT22;12094;50.822;4.376;2023-07-09T12:56:51;23.50;99.90
23827;DHT22;12094;50.822;4.376;2023-07-09T12:59:28;23.70;99.90
23827;DHT22;12094;50.822;4.376;2023-07-09T13:02:02;23.70;99.90
23827;DHT22;12094;50.822;4.376;2023-07-09T13:04:37;23.70;99.90
23827;DHT22;12094;50.822;4.376;2023-07-09T13:09:53;24.10;99.90
23827;DHT22;12094;50.822;4.376;2023-07-09T13:12:29;24.20;99.90
23827;DHT22;12094;50.822;4.376;2023-07-09T13:15:00;24.30;99.90
23827;DHT22;12094;50.822;4.376;2023-07-09T13:17:30;24.40;99.90
23827;DHT22;12094;50.822;4.376;2023-07-09T13:19:58;24.60;99.90
23827;DHT22;12094;50.822;4.376;2023-07-09T13:22:28;24.90;99.90
23827;DHT22;12094;50.822;4.376;2023-07-09T13:24:58;24.90;99.90
23827;DHT22;12094;50.822;4.376;2023-07-09T13:27:26;25.00;99.90
23827;DHT22;12094;50.822;4.376;2023-07-09T13:29:53;25.10;99.90
23827;DHT22;12094;50.822;4.376;2023-07-09T13:32:20;25.10;99.90
23827;DHT22;12094;50.822;4.376;2023-07-09T13:34:47;25.00;99.90
23827;DHT22;12094;50.822;4.376;2023-07-09T13:37:15;24.90;99.90
23827;DHT22;12094;50.822;4.376;2023-07-09T13:39:43;24.90;99.90
23827;DHT22;12094;50.822;4.376;2023-07-09T13:42:14;24.90;99.90
23827;DHT22;12094;50.822;4.376;2023-07-09T13:44:44;24.90;99.90
23827;DHT22;12094;50.822;4.376;2023-07-09T13:47:17;24.90;99.90
23827;DHT22;12094;50.822;4.376;2023-07-09T13:49:46;25.00;99.90
23827;DHT22;12094;50.822;4.376;2023-07-09T13:52:21;25.00;99.90
23827;DHT22;12094;50.822;4.376;2023-07-09T13:54:50;25.10;99.90
23827;DHT22;12094;50.822;4.376;2023-07-09T13:57:21;25.10;99.90
23827;DHT22;12094;50.822;4.376;2023-07-09T13:59:48;25.30;99.90
23827;DHT22;12094;50.822;4.376;2023-07-09T14:02:25;25.50;99.90
23827;DHT22;12094;50.822;4.376;2023-07-09T14:05:02;25.70;99.90
23827;DHT22;12094;50.822;4.376;2023-07-09T14:07:32;25.90;99.90
23827;DHT22;12094;50.822;4.376;2023-07-09T14:10:00;26.60;99.90
23827;DHT22;12094;50.822;4.376;2023-07-09T14:12:28;27.70;99.90
23827;DHT22;12094;50.822;4.376;2023-07-09T14:14:58;28.50;99.90
23827;DHT22;12094;50.822;4.376;2023-07-09T14:17:26;28.80;99.90
23827;DHT22;12094;50.822;4.376;2023-07-09T14:19:54;29.10;99.90
23827;DHT22;12094;50.822;4.376;2023-07-09T14:22:34;29.40;99.90
23827;DHT22;12094;50.822;4.376;2023-07-09T14:25:04;29.40;99.90
23827;DHT22;12094;50.822;4.376;2023-07-09T14:27:32;29.70;99.90
23827;DHT22;12094;50.822;4.376;2023-07-09T14:29:59;30.30;99.90
23827;DHT22;12094;50.822;4.376;2023-07-09T14:32:34;30.90;99.90
23827;DHT22;12094;50.822;4.376;2023-07-09T14:35:08;31.60;99.90
23827;DHT22;12094;50.822;4.376;2023-07-09T14:37:36;31.50;99.90
23827;DHT22;12094;50.822;4.376;2023-07-09T14:40:03;31.40;99.90
23827;DHT22;12094;50.822;4.376;2023-07-09T14:42:32;31.50;99.90
23827;DHT22;12094;50.822;4.376;2023-07-09T14:44:59;31.90;99.90
23827;DHT22;12094;50.822;4.376;2023-07-09T14:47:26;31.50;99.90
23827;DHT22;12094;50.822;4.376;2023-07-09T14:49:54;30.60;99.90
23827;DHT22;12094;50.822;4.376;2023-07-09T14:52:22;31.20;99.90
23827;DHT22;12094;50.822;4.376;2023-07-09T14:54:49;32.00;99.90
23827;DHT22;12094;50.822;4.376;2023-07-09T14:57:21;32.30;99.90
23827;DHT22;12094;50.822;4.376;2023-07-09T14:59:49;32.50;99.90
23827;DHT22;12094;50.822;4.376;2023-07-09T15:02:33;32.20;99.90
23827;DHT22;12094;50.822;4.376;2023-07-09T15:05:09;32.20;99.90
23827;DHT22;12094;50.822;4.376;2023-07-09T15:07:39;30.90;99.90
23827;DHT22;12094;50.822;4.376;2023-07-09T15:10:06;31.50;99.90
23827;DHT22;12094;50.822;4.376;2023-07-09T15:12:35;32.30;99.90
23827;DHT22;12094;50.822;4.376;2023-07-09T15:15:22;32.60;99.90
23827;DHT22;12094;50.822;4.376;2023-07-09T15:17:50;33.20;99.90
23827;DHT22;12094;50.822;4.376;2023-07-09T15:20:20;33.10;99.90
23827;DHT22;12094;50.822;4.376;2023-07-09T15:22:49;32.80;99.90
23827;DHT22;12094;50.822;4.376;2023-07-09T15:25:23;32.20;99.90
23827;DHT22;12094;50.822;4.376;2023-07-09T15:27:51;31.70;99.90
23827;DHT22;12094;50.822;4.376;2023-07-09T15:30:24;31.10;99.90
23827;DHT22;12094;50.822;4.376;2023-07-09T15:32:54;30.80;99.90
23827;DHT22;12094;50.822;4.376;2023-07-09T15:35:21;30.30;99.90
23827;DHT22;12094;50.822;4.376;2023-07-09T15:37:49;29.90;99.90
23827;DHT22;12094;50.822;4.376;2023-07-09T15:40:22;29.80;99.90
23827;DHT22;12094;50.822;4.376;2023-07-09T15:42:55;29.40;99.90
23827;DHT22;12094;50.822;4.376;2023-07-09T15:45:22;29.50;99.90
23827;DHT22;12094;50.822;4.376;2023-07-09T15:47:51;29.60;99.90
23827;DHT22;12094;50.822;4.376;2023-07-09T15:50:27;29.80;99.90
23827;DHT22;12094;50.822;4.376;2023-07-09T15:52:54;29.80;99.90
23827;DHT22;12094;50.822;4.376;2023-07-09T15:55:23;29.70;99.90
23827;DHT22;12094;50.822;4.376;2023-07-09T15:57:52;29.70;99.90
23827;DHT22;12094;50.822;4.376;2023-07-09T16:00:27;29.70;99.90
23827;DHT22;12094;50.822;4.376;2023-07-09T16:02:55;29.60;99.90
23827;DHT22;12094;50.822;4.376;2023-07-09T16:05:42;29.80;99.90
23827;DHT22;12094;50.822;4.376;2023-07-09T16:08:11;29.60;99.90
23827;DHT22;12094;50.822;4.376;2023-07-09T16:10:38;29.50;99.90
23827;DHT22;12094;50.822;4.376;2023-07-09T16:13:19;29.30;99.90
23827;DHT22;12094;50.822;4.376;2023-07-09T16:15:48;28.90;99.90
23827;DHT22;12094;50.822;4.376;2023-07-09T16:18:16;28.80;99.90
23827;DHT22;12094;50.822;4.376;2023-07-09T16:20:44;28.50;99.90
23827;DHT22;12094;50.822;4.376;2023-07-09T16:23:18;28.20;99.90
23827;DHT22;12094;50.822;4.376;2023-07-09T16:25:47;27.90;99.90
23827;DHT22;12094;50.822;4.376;2023-07-09T16:28:22;27.60;99.90
23827;DHT22;12094;50.822;4.376;2023-07-09T16:30:49;27.50;99.90
23827;DHT22;12094;50.822;4.376;2023-07-09T16:33:21;27.20;99.90
23827;DHT22;12094;50.822;4.376;2023-07-09T16:35:53;27.20;99.90
23827;DHT22;12094;50.822;4.376;2023-07-09T16:38:20;27.10;99.90